Terminal Aerodrome Forecast
Issued by NWS

Home | Current Version | Previous Version | Text Only | Print | Product List | Glossary On
Versions: 1 2 3 4 5 6 7 8 9 10 11 12 13 14 15 16 17 18 19 20 21 22 23
000
FTUS43 KMQT 201100
TAFCMX
TAF
KCMX 201135Z 2012/2112 VRB03KT P6SM OVC015
      TEMPO 2012/2016 -SHRA
     FM201600 27013G23KT P6SM BKN015
     FM202100 31007KT P6SM SCT025
     FM210200 03005KT P6SM BKN040=

USA.gov is the U.S. government's official web portal to all federal, state and local government web resources and services.